Time;durP1;ratioP1;P1;durP2;ratioP2;P2;SDS_P1;SDS_P2;PMS_P1;PMS_P2;Temp;Humidity;BMP_temperature;BMP_pressure;BME280_temperature;BME280_humidity;BME280_pressure;Samples;Min_cycle;Max_cycle;Signal;HPM_P1;HPM_P2
2023/01/20 00:00:32;;;;;;;30.88;16.17;;;;;;;-2.28;95.12;100316.22;5093189;28;20047;-69
2023/01/20 00:02:58;;;;;;;27.48;16.48;;;;;;;-2.28;94.82;100324.94;5092386;28;20050;-68
2023/01/20 00:05:25;;;;;;;30.38;16.48;;;;;;;-2.30;95.35;100324.19;5092729;28;20066;-68
2023/01/20 00:07:51;;;;;;;32.70;15.93;;;;;;;-2.34;95.78;100320.91;5094644;28;20142;-68
2023/01/20 00:10:18;;;;;;;27.65;15.98;;;;;;;-2.33;95.48;100322.59;5092459;28;20040;-69
2023/01/20 00:12:45;;;;;;;36.08;16.00;;;;;;;-2.28;95.73;100324.09;5091353;28;20160;-68
2023/01/20 00:15:11;;;;;;;32.08;16.23;;;;;;;-2.25;94.99;100327.41;5094052;28;20043;-68
2023/01/20 00:17:38;;;;;;;33.03;16.45;;;;;;;-2.29;95.61;100332.94;5090212;28;20093;-68
2023/01/20 00:20:05;;;;;;;43.95;16.30;;;;;;;-2.28;95.74;100326.72;5092554;28;20048;-68
2023/01/20 00:22:32;;;;;;;27.55;15.80;;;;;;;-2.27;95.92;100331.03;5092823;28;20059;-68
2023/01/20 00:24:59;;;;;;;31.40;15.63;;;;;;;-2.28;95.88;100334.59;5092390;28;20480;-68
2023/01/20 00:27:26;;;;;;;33.25;16.40;;;;;;;-2.34;96.02;100333.16;5081457;28;20046;-68
2023/01/20 00:29:52;;;;;;;38.42;17.38;;;;;;;-2.26;95.94;100332.75;5092237;28;20496;-68
2023/01/20 00:32:19;;;;;;;32.30;16.13;;;;;;;-2.31;95.18;100338.25;5093532;28;20044;-68
2023/01/20 00:34:45;;;;;;;37.28;15.70;;;;;;;-2.31;95.99;100340.03;5093570;28;20044;-68
2023/01/20 00:37:12;;;;;;;30.63;16.23;;;;;;;-2.24;94.73;100350.09;5092989;28;20066;-67
2023/01/20 00:39:38;;;;;;;37.92;16.80;;;;;;;-2.20;94.50;100353.41;5092986;28;20044;-71
2023/01/20 00:42:05;;;;;;;44.42;17.30;;;;;;;-2.31;95.31;100353.16;5092239;28;20106;-68
2023/01/20 00:44:31;;;;;;;41.58;16.95;;;;;;;-2.43;95.59;100344.22;5074646;28;20048;-67
2023/01/20 00:46:58;;;;;;;42.17;16.65;;;;;;;-2.33;94.79;100351.47;5092191;28;20070;-68
2023/01/20 00:49:24;;;;;;;44.30;16.10;;;;;;;-2.25;94.72;100347.56;5091400;28;20058;-68
2023/01/20 00:51:51;;;;;;;38.67;14.85;;;;;;;-2.21;93.75;100349.09;5091467;28;20051;-67
2023/01/20 00:54:17;;;;;;;40.55;16.73;;;;;;;-2.28;93.63;100353.00;5090564;28;20047;-68
2023/01/20 00:56:43;;;;;;;39.88;16.25;;;;;;;-2.27;94.30;100355.53;5089949;28;20052;-67
2023/01/20 00:59:10;;;;;;;38.60;17.20;;;;;;;-2.26;93.93;100352.00;5090939;28;20428;-67
2023/01/20 01:01:37;;;;;;;30.15;15.48;;;;;;;-2.36;94.18;100356.06;5090932;28;20388;-69
2023/01/20 01:04:03;;;;;;;45.55;15.55;;;;;;;-2.37;94.76;100364.88;5090105;28;20075;-67
2023/01/20 01:06:30;;;;;;;38.58;16.17;;;;;;;-2.38;94.07;100361.38;5089762;28;20491;-69
2023/01/20 01:08:56;;;;;;;38.15;16.42;;;;;;;-2.45;94.88;100375.81;5091078;28;20048;-67
2023/01/20 01:11:23;;;;;;;35.38;16.08;;;;;;;-2.40;95.11;100373.78;5089736;28;20043;-68
2023/01/20 01:13:50;;;;;;;34.92;16.50;;;;;;;-2.39;93.85;100380.72;5091510;28;20698;-68
2023/01/20 01:16:16;;;;;;;37.78;17.23;;;;;;;-2.27;93.38;100388.84;5091214;28;20048;-67
2023/01/20 01:18:43;;;;;;;34.53;15.60;;;;;;;-2.29;93.72;100381.06;5090794;28;20056;-68
2023/01/20 01:21:12;;;;;;;37.22;15.95;;;;;;;-2.26;92.79;100382.69;5088104;28;20123;-68
2023/01/20 01:23:39;;;;;;;36.75;16.40;;;;;;;-2.37;93.34;100378.88;5089922;28;20411;-68
2023/01/20 01:26:06;;;;;;;34.13;16.38;;;;;;;-2.38;93.71;100379.78;5090702;28;20043;-68
2023/01/20 01:28:32;;;;;;;35.53;16.10;;;;;;;-2.43;93.56;100386.25;5090580;28;20513;-68
2023/01/20 01:31:03;;;;;;;26.88;14.98;;;;;;;-2.37;93.13;100392.00;5090409;28;20415;-67
2023/01/20 01:33:31;;;;;;;33.78;15.13;;;;;;;-2.33;93.25;100396.16;5090176;28;20048;-68
2023/01/20 01:36:00;;;;;;;38.38;14.60;;;;;;;-2.35;92.44;100386.66;5090203;28;20058;-68
2023/01/20 01:38:27;;;;;;;29.17;14.50;;;;;;;-2.30;93.36;100395.13;5090089;28;20127;-68
2023/01/20 01:40:55;;;;;;;34.05;16.48;;;;;;;-2.35;92.23;100398.00;5090402;28;20054;-68
2023/01/20 01:43:25;;;;;;;34.03;15.93;;;;;;;-2.23;92.58;100400.91;5090655;28;20119;-68
2023/01/20 01:45:52;;;;;;;25.27;10.95;;;;;;;-2.28;92.41;100398.50;5089993;28;20074;-67
2023/01/20 01:48:32;;;;;;;38.38;17.63;;;;;;;-2.27;92.51;100401.97;5089560;28;20412;-68
2023/01/20 01:51:07;;;;;;;36.83;16.85;;;;;;;-2.26;92.09;100398.44;5090247;28;20067;-67
2023/01/20 01:53:47;;;;;;;32.17;15.27;;;;;;;-2.21;92.13;100402.50;5091201;28;20050;-69
2023/01/20 01:56:14;;;;;;;32.95;15.30;;;;;;;-2.14;92.33;100410.88;5091276;28;20051;-69
2023/01/20 01:58:45;;;;;;;27.30;15.25;;;;;;;-2.25;93.00;100411.47;5090821;28;20123;-67
2023/01/20 02:01:12;;;;;;;39.97;16.65;;;;;;;-2.44;93.83;100406.41;5091209;28;20044;-68
2023/01/20 02:03:53;;;;;;;28.25;15.15;;;;;;;-2.43;93.08;100417.75;5090383;28;20044;-68
2023/01/20 02:10:01;;;;;;;32.88;14.57;;;;;;;-2.37;92.05;100427.94;5089953;28;20050;-68
2023/01/20 02:12:28;;;;;;;39.30;15.88;;;;;;;-2.38;92.24;100427.06;5090270;28;20416;-74
2023/01/20 02:14:58;;;;;;;42.33;15.35;;;;;;;-2.27;91.61;100438.78;5091119;28;20057;-69
2023/01/20 02:17:30;;;;;;;34.65;15.20;;;;;;;-2.27;91.04;100439.63;5089430;28;20132;-68
2023/01/20 02:20:15;;;;;;;37.60;15.63;;;;;;;-2.34;91.46;100436.50;5090514;28;20043;-67
2023/01/20 02:22:54;;;;;;;37.63;15.40;;;;;;;-2.48;92.06;100438.16;5087838;28;20059;-73
2023/01/20 02:25:21;;;;;;;30.80;14.60;;;;;;;-2.42;92.33;100440.47;5089347;28;20044;-75
2023/01/20 02:28:11;;;;;;;39.45;14.75;;;;;;;-2.36;91.62;100442.75;5088487;28;20054;-68
2023/01/20 02:31:08;;;;;;;35.72;14.85;;;;;;;-2.51;92.12;100447.09;5089401;28;20044;-75
2023/01/20 02:34:02;;;;;;;32.80;14.57;;;;;;;-2.43;91.89;100455.38;5088420;28;20492;-68
2023/01/20 02:36:44;;;;;;;35.28;15.27;;;;;;;-2.40;92.12;100465.72;5086659;28;20098;-67
2023/01/20 02:39:48;;;;;;;32.85;13.73;;;;;;;-2.40;91.84;100472.78;5089539;28;20105;-67
2023/01/20 02:42:30;;;;;;;34.97;15.30;;;;;;;-2.57;92.28;100474.50;5089187;28;20052;-68
2023/01/20 02:45:08;;;;;;;33.08;15.57;;;;;;;-2.30;91.89;100476.59;5084221;28;20040;-68
2023/01/20 02:47:41;;;;;;;38.25;15.73;;;;;;;-2.34;90.87;100480.28;5089833;28;20528;-68
2023/01/20 02:50:26;;;;;;;31.08;15.27;;;;;;;-2.41;91.09;100487.69;5089531;28;20089;-68
2023/01/20 02:52:56;;;;;;;35.17;16.05;;;;;;;-2.41;90.55;100490.31;5094285;28;20526;-68
2023/01/20 02:55:32;;;;;;;35.15;15.13;;;;;;;-2.36;90.32;100492.69;5094090;28;20039;-68
2023/01/20 02:58:07;;;;;;;33.03;17.02;;;;;;;-2.43;90.85;100492.16;5093998;28;20381;-69
2023/01/20 03:00:43;;;;;;;35.50;16.27;;;;;;;-2.39;90.61;100492.84;5093246;28;20054;-68
2023/01/20 03:03:14;;;;;;;38.17;17.98;;;;;;;-2.46;91.18;100488.84;5093470;28;20126;-68
2023/01/20 03:05:48;;;;;;;35.88;17.40;;;;;;;-2.59;91.58;100491.28;5093753;28;20393;-68
2023/01/20 03:08:16;;;;;;;38.65;17.92;;;;;;;-2.50;91.70;100500.47;5094189;28;20109;-68
2023/01/20 03:10:46;;;;;;;35.13;16.35;;;;;;;-2.51;91.44;100502.25;5093322;28;20075;-68
2023/01/20 03:13:18;;;;;;;37.08;17.00;;;;;;;-2.50;90.47;100501.31;5093977;28;20357;-69
2023/01/20 03:15:58;;;;;;;38.10;18.25;;;;;;;-2.48;90.82;100506.47;5090233;28;20048;-69
2023/01/20 03:18:28;;;;;;;40.95;18.60;;;;;;;-2.50;91.34;100510.97;5094427;28;20115;-69
2023/01/20 03:20:58;;;;;;;38.38;19.63;;;;;;;-2.45;90.97;100507.16;5093894;28;20135;-68
2023/01/20 03:23:29;;;;;;;39.40;18.13;;;;;;;-2.40;90.54;100507.75;5095208;28;20044;-68
2023/01/20 03:25:56;;;;;;;37.10;18.42;;;;;;;-2.58;91.41;100514.84;5094257;28;20044;-69
2023/01/20 03:28:23;;;;;;;38.25;19.67;;;;;;;-2.60;92.42;100515.84;5076565;28;20394;-68
2023/01/20 03:30:50;;;;;;;43.78;19.38;;;;;;;-2.48;91.91;100520.44;5093899;28;20472;-68
2023/01/20 03:33:17;;;;;;;42.22;19.48;;;;;;;-2.49;91.27;100518.75;5093645;28;20042;-68
2023/01/20 03:35:44;;;;;;;55.75;22.38;;;;;;;-2.48;91.56;100519.59;5093656;28;20052;-69
2023/01/20 03:38:11;;;;;;;42.60;19.73;;;;;;;-2.53;91.48;100521.63;5093396;28;20866;-70
2023/01/20 03:40:45;;;;;;;42.67;20.55;;;;;;;-2.62;92.38;100517.69;5090076;28;20040;-72
2023/01/20 03:43:41;;;;;;;43.45;20.15;;;;;;;-2.56;92.16;100522.63;5092171;28;20407;-69
2023/01/20 03:46:18;;;;;;;46.72;21.42;;;;;;;-2.56;92.04;100525.25;5083889;28;20403;-68
2023/01/20 03:48:52;;;;;;;49.97;20.75;;;;;;;-2.52;92.24;100533.81;5091394;28;20062;-68
2023/01/20 03:51:33;;;;;;;51.40;22.80;;;;;;;-2.44;92.19;100523.75;5091684;28;20407;-68
2023/01/20 03:54:05;;;;;;;42.93;21.63;;;;;;;-2.52;92.72;100529.41;5090534;28;20044;-68
2023/01/20 03:56:40;;;;;;;44.15;20.33;;;;;;;-2.48;91.91;100538.81;5089614;28;20461;-69
2023/01/20 03:59:10;;;;;;;44.92;21.23;;;;;;;-2.56;92.84;100533.16;5090539;28;20123;-68
2023/01/20 04:01:40;;;;;;;51.90;22.17;;;;;;;-2.61;93.24;100537.81;5091502;28;20510;-69
2023/01/20 04:04:10;;;;;;;45.60;21.20;;;;;;;-2.60;93.77;100534.25;5089891;28;20495;-68
2023/01/20 04:06:40;;;;;;;48.92;22.40;;;;;;;-2.63;93.90;100542.28;5091230;28;20289;-68
2023/01/20 04:09:11;;;;;;;40.58;22.13;;;;;;;-2.52;93.18;100545.19;5091375;28;20044;-67
2023/01/20 04:11:38;;;;;;;;;;;;;;;-2.50;93.33;100551.22;5091497;28;20484;-68
2023/01/20 04:14:07;;;;;;;49.10;21.58;;;;;;;-2.51;93.47;100556.53;5090535;28;19920;-68
2023/01/20 04:16:35;;;;;;;51.80;22.70;;;;;;;-2.52;93.17;100560.94;5090503;28;20044;-68
2023/01/20 04:19:02;;;;;;;55.28;23.65;;;;;;;-2.60;93.21;100569.22;5091045;28;20044;-68
2023/01/20 04:21:34;;;;;;;54.50;23.95;;;;;;;-2.54;93.46;100570.69;5091408;28;20071;-67
2023/01/20 04:24:03;;;;;;;49.22;23.83;;;;;;;-2.58;93.23;100567.38;5090081;28;20046;-68
2023/01/20 04:26:29;;;;;;;58.28;23.48;;;;;;;-2.62;93.99;100571.06;5089037;28;20051;-68
2023/01/20 04:28:56;;;;;;;47.15;22.70;;;;;;;-2.65;94.02;100573.00;5090545;28;20044;-68
2023/01/20 04:31:23;;;;;;;51.55;24.67;;;;;;;-2.68;93.96;100570.56;5063654;28;20055;-67
2023/01/20 04:33:56;;;;;;;50.15;24.65;;;;;;;-2.59;93.83;100572.69;5091439;28;20451;-67
2023/01/20 04:36:23;;;;;;;52.28;25.45;;;;;;;-2.59;93.74;100575.31;5091137;28;20048;-68
2023/01/20 04:38:49;;;;;;;51.65;25.50;;;;;;;-2.64;93.95;100575.56;5091362;28;20054;-68
2023/01/20 04:41:16;;;;;;;51.60;25.30;;;;;;;-2.59;93.54;100580.56;5091051;28;20407;-67
2023/01/20 04:43:44;;;;;;;58.08;25.92;;;;;;;-2.63;93.71;100584.28;5090408;28;20070;-67
2023/01/20 04:46:11;;;;;;;47.03;24.45;;;;;;;-2.60;93.21;100590.22;5091622;28;20483;-68
2023/01/20 04:48:38;;;;;;;48.22;24.88;;;;;;;-2.70;94.09;100583.75;5090212;28;20043;-69
2023/01/20 04:51:06;;;;;;;54.90;24.45;;;;;;;-2.75;93.85;100580.53;5090577;28;20052;-67
2023/01/20 04:53:33;;;;;;;55.33;24.27;;;;;;;-2.74;94.04;100582.22;5089374;28;20048;-68
2023/01/20 04:56:00;;;;;;;48.28;23.98;;;;;;;-2.70;93.43;100596.03;5090599;28;20522;-68
2023/01/20 04:58:26;;;;;;;58.00;24.08;;;;;;;-2.66;92.92;100600.19;5091171;28;20048;-68
2023/01/20 05:00:53;;;;;;;60.72;26.13;;;;;;;-2.82;93.41;100605.41;5090161;28;20468;-68
2023/01/20 05:03:20;;;;;;;47.95;24.80;;;;;;;-2.85;93.84;100598.53;5090731;28;20055;-68
2023/01/20 05:05:53;;;;;;;59.10;26.60;;;;;;;-2.79;93.48;100599.13;5090390;28;20056;-68
2023/01/20 05:08:20;;;;;;;50.20;24.63;;;;;;;-2.87;93.67;100600.34;5080088;28;20130;-68
2023/01/20 05:10:47;;;;;;;49.67;25.50;;;;;;;-2.79;93.43;100599.13;5088321;28;20436;-68
2023/01/20 05:13:13;;;;;;;50.17;25.52;;;;;;;-2.79;93.88;100613.09;5089951;28;20046;-67
2023/01/20 05:15:41;;;;;;;56.90;27.30;;;;;;;-2.81;94.09;100618.44;5091217;28;20420;-68
2023/01/20 05:18:07;;;;;;;54.83;26.23;;;;;;;-2.83;93.66;100622.91;5089665;28;20073;-68
2023/01/20 05:20:34;;;;;;;63.92;27.85;;;;;;;-2.90;94.35;100629.38;5090492;28;20047;-68
2023/01/20 05:23:01;;;;;;;45.95;25.58;;;;;;;-3.05;95.59;100630.16;5090256;28;20044;-67
2023/01/20 05:25:27;;;;;;;53.63;26.98;;;;;;;-2.97;95.42;100635.88;5088959;28;20044;-67
2023/01/20 05:27:54;;;;;;;60.38;26.67;;;;;;;-2.93;94.77;100636.56;5090221;28;20044;-67
2023/01/20 05:30:20;;;;;;;51.80;25.02;;;;;;;-3.19;95.50;100645.72;5089912;28;20054;-69
2023/01/20 05:33:02;;;;;;;54.55;26.92;;;;;;;-3.35;96.80;100651.69;5056007;28;20089;-68
2023/01/20 05:35:28;;;;;;;53.67;24.92;;;;;;;-3.21;96.50;100660.69;5072304;28;20496;-68
2023/01/20 05:37:55;;;;;;;57.85;26.02;;;;;;;-3.11;95.69;100651.44;5091143;28;20044;-67
2023/01/20 05:40:22;;;;;;;51.35;26.15;;;;;;;-3.02;95.72;100656.25;5090636;28;20044;-69
2023/01/20 05:42:49;;;;;;;69.45;27.38;;;;;;;-3.00;95.21;100654.38;5091004;28;20058;-68
2023/01/20 05:45:15;;;;;;;52.97;25.75;;;;;;;-3.03;95.13;100665.06;5091024;28;20046;-70
2023/01/20 05:47:42;;;;;;;59.45;26.00;;;;;;;-3.02;95.20;100664.13;5091681;28;20058;-68
2023/01/20 05:50:10;;;;;;;49.17;24.75;;;;;;;-3.09;95.32;100675.84;5091865;28;20544;-69
2023/01/20 05:52:36;;;;;;;57.00;26.35;;;;;;;-3.12;94.97;100682.09;5092039;28;20124;-68
2023/01/20 05:55:04;;;;;;;59.33;26.73;;;;;;;-3.15;95.19;100682.22;5090556;28;20057;-67
2023/01/20 05:57:30;;;;;;;59.20;27.50;;;;;;;-3.09;94.82;100686.34;5090240;28;20534;-68
2023/01/20 05:59:57;;;;;;;51.25;26.23;;;;;;;-3.06;94.60;100688.81;5090813;28;20419;-68
2023/01/20 06:02:23;;;;;;;52.97;25.30;;;;;;;-3.03;94.75;100691.31;5089055;28;20135;-68
2023/01/20 06:04:50;;;;;;;46.00;24.55;;;;;;;-3.10;94.63;100695.13;5089327;28;20072;-68
2023/01/20 06:07:16;;;;;;;59.78;24.88;;;;;;;-3.14;94.68;100693.56;5089476;28;20052;-68
2023/01/20 06:09:43;;;;;;;49.65;25.40;;;;;;;-3.10;94.42;100698.63;5091269;28;20048;-68
2023/01/20 06:12:09;;;;;;;60.85;25.17;;;;;;;-3.17;94.96;100707.72;5091777;28;20044;-69
2023/01/20 06:14:36;;;;;;;48.45;23.65;;;;;;;-3.16;94.34;100706.78;5090691;28;20046;-68
2023/01/20 06:17:02;;;;;;;56.58;25.50;;;;;;;-3.09;94.61;100707.34;5089380;28;20060;-68
2023/01/20 06:19:29;;;;;;;44.80;25.40;;;;;;;-3.08;93.55;100709.03;5090236;28;20419;-68
2023/01/20 06:21:56;;;;;;;51.03;24.52;;;;;;;-3.12;94.21;100715.34;5090229;28;20056;-68
2023/01/20 06:24:22;;;;;;;61.30;24.85;;;;;;;-3.17;93.65;100717.34;5090897;28;20487;-70
2023/01/20 06:26:49;;;;;;;57.22;24.20;;;;;;;-3.24;94.41;100729.03;5094623;28;20118;-69
2023/01/20 06:29:16;;;;;;;50.60;24.23;;;;;;;-3.12;94.25;100731.09;5093844;28;20066;-67
2023/01/20 06:31:43;;;;;;;55.67;24.48;;;;;;;-3.05;93.54;100733.34;5095998;28;20455;-68
2023/01/20 06:34:11;;;;;;;62.90;28.05;;;;;;;-3.22;93.75;100730.69;5095169;28;20044;-68
2023/01/20 06:36:38;;;;;;;68.63;27.10;;;;;;;-3.28;94.93;100750.16;5094358;28;20044;-68
2023/01/20 06:39:05;;;;;;;61.58;27.10;;;;;;;-3.32;94.99;100759.09;5075849;28;20128;-68
2023/01/20 06:41:31;;;;;;;51.60;27.08;;;;;;;-3.42;95.29;100749.94;5095061;28;20098;-67
2023/01/20 06:43:58;;;;;;;55.33;25.70;;;;;;;-3.45;96.66;100762.34;5095433;28;20047;-69
2023/01/20 06:46:24;;;;;;;51.17;26.08;;;;;;;-3.34;96.49;100763.59;5094713;28;20126;-68
2023/01/20 06:48:51;;;;;;;62.88;28.05;;;;;;;-3.27;95.15;100766.78;5095090;28;20048;-68
2023/01/20 06:51:19;;;;;;;65.93;27.83;;;;;;;-3.29;95.58;100774.72;5095410;28;20054;-68
2023/01/20 06:53:46;;;;;;;61.10;27.60;;;;;;;-3.30;95.75;100775.63;5095383;28;20466;-67
2023/01/20 06:56:14;;;;;;;65.45;29.50;;;;;;;-3.23;95.47;100786.72;5096182;28;20050;-68
2023/01/20 06:58:41;;;;;;;65.30;29.20;;;;;;;-3.31;95.43;100787.06;5095409;28;20434;-68
2023/01/20 07:01:17;;;;;;;63.30;28.35;;;;;;;-3.28;95.76;100791.28;5094861;28;20038;-69
2023/01/20 07:03:44;;;;;;;61.08;29.35;;;;;;;-3.17;95.71;100791.69;5093220;28;20048;-68
2023/01/20 07:06:14;;;;;;;63.33;29.80;;;;;;;-3.19;95.04;100790.88;5094356;28;20048;-68
2023/01/20 07:08:44;;;;;;;46.33;22.20;;;;;;;-3.08;95.15;100803.50;5094568;28;20104;-68
2023/01/20 07:11:12;;;;;;;67.93;30.02;;;;;;;-3.13;94.71;100800.25;5093594;28;20048;-70
2023/01/20 07:13:38;;;;;;;67.00;30.52;;;;;;;-3.27;95.80;100814.00;5094284;28;20116;-81
2023/01/20 07:16:05;;;;;;;63.53;29.42;;;;;;;-3.14;95.29;100820.38;5089231;28;20136;-68
2023/01/20 07:18:36;;;;;;;72.47;29.77;;;;;;;-3.02;94.43;100826.84;5092160;28;20109;-69
2023/01/20 07:21:03;;;;;;;64.70;29.73;;;;;;;-3.22;95.05;100824.28;5094364;28;20052;-68
2023/01/20 07:23:32;;;;;;;67.72;28.27;;;;;;;-3.16;95.20;100822.25;5094348;28;20054;-68
2023/01/20 07:26:06;;;;;;;67.43;28.77;;;;;;;-3.10;95.18;100831.59;5094547;28;20412;-68
2023/01/20 07:28:34;;;;;;;61.78;30.13;;;;;;;-3.26;95.84;100841.09;5093893;28;20064;-68
2023/01/20 07:31:09;;;;;;;58.17;28.10;;;;;;;-3.17;95.63;100843.28;5094079;28;20051;-68
2023/01/20 07:33:36;;;;;;;55.50;28.15;;;;;;;-3.50;96.40;100843.88;5093622;28;20412;-69
2023/01/20 07:36:04;;;;;;;63.15;28.83;;;;;;;-3.34;96.19;100844.06;5093776;28;20076;-68
2023/01/20 07:38:31;;;;;;;66.93;28.40;;;;;;;-3.32;95.60;100847.44;5095015;28;20111;-69
2023/01/20 07:41:02;;;;;;;61.15;29.60;;;;;;;-3.37;96.06;100845.03;5095143;28;20044;-68
2023/01/20 07:43:31;;;;;;;65.47;29.45;;;;;;;-3.29;95.12;100849.94;5093361;28;20499;-68
2023/01/20 07:46:03;;;;;;;68.90;29.45;;;;;;;-3.22;94.88;100854.00;5092838;28;20046;-68
2023/01/20 07:48:31;;;;;;;67.70;31.17;;;;;;;-3.21;94.49;100849.59;5091872;28;20106;-68
2023/01/20 07:51:04;;;;;;;79.22;32.80;;;;;;;-3.29;95.49;100863.06;5092298;28;20414;-68
2023/01/20 07:53:33;;;;;;;88.32;31.98;;;;;;;-3.23;95.71;100861.94;5090415;28;20082;-68
2023/01/20 07:56:05;;;;;;;75.35;32.80;;;;;;;-3.21;95.57;100860.94;5074269;28;20048;-68
2023/01/20 07:58:32;;;;;;;77.82;32.33;;;;;;;-3.13;95.36;100865.88;5091850;28;20127;-68
2023/01/20 08:01:10;;;;;;;75.85;31.88;;;;;;;-3.24;96.02;100866.31;5091304;28;20055;-68
2023/01/20 08:03:37;;;;;;;77.60;33.20;;;;;;;-3.19;96.50;100864.34;5090521;28;20071;-68
2023/01/20 08:06:05;;;;;;;75.22;34.35;;;;;;;-3.31;96.27;100864.88;5091613;28;20044;-68
2023/01/20 08:08:32;;;;;;;79.53;34.03;;;;;;;-3.23;96.23;100875.91;5087932;28;20047;-68
2023/01/20 08:11:00;;;;;;;95.45;37.05;;;;;;;-3.12;95.93;100883.31;5101198;28;20410;-68
2023/01/20 08:13:30;;;;;;;78.57;34.22;;;;;;;-3.05;95.88;100876.88;5091049;28;20048;-68
2023/01/20 08:16:02;;;;;;;67.37;32.30;;;;;;;-3.10;95.38;100878.81;5091555;28;20052;-69
2023/01/20 08:18:31;;;;;;;77.25;31.48;;;;;;;-3.11;95.27;100877.97;5091179;28;20506;-69
2023/01/20 08:20:57;;;;;;;76.80;33.85;;;;;;;-3.12;95.49;100881.53;5090883;28;20055;-68
2023/01/20 08:23:24;;;;;;;83.00;33.17;;;;;;;-3.12;95.46;100885.94;5091192;28;20396;-68
2023/01/20 08:25:58;;;;;;;85.75;34.45;;;;;;;-3.14;96.42;100891.22;5091284;28;20056;-68
2023/01/20 08:28:25;;;;;;;107.50;35.85;;;;;;;-3.01;95.71;100894.16;5091406;28;20138;-68
2023/01/20 08:30:52;;;;;;;82.65;33.72;;;;;;;-3.15;96.01;100892.16;5091632;28;20048;-68
2023/01/20 08:33:19;;;;;;;73.18;32.20;;;;;;;-3.33;96.45;100896.44;5090769;28;20048;-69
2023/01/20 08:35:46;;;;;;;89.20;33.58;;;;;;;-3.12;95.57;100893.81;5091752;28;20052;-69
2023/01/20 08:38:13;;;;;;;82.57;33.42;;;;;;;-3.08;95.04;100903.25;5091680;28;20040;-70
2023/01/20 08:40:42;;;;;;;80.20;34.95;;;;;;;-3.05;94.45;100903.09;5091508;28;20052;-70
2023/01/20 08:43:08;;;;;;;85.35;34.85;;;;;;;-3.08;95.36;100896.22;5091255;28;20063;-70
2023/01/20 08:45:35;;;;;;;82.70;35.60;;;;;;;-2.95;94.50;100907.03;5090142;28;20514;-70
2023/01/20 08:48:01;;;;;;;73.15;33.72;;;;;;;-2.89;94.35;100909.38;5090227;28;20094;-69
2023/01/20 08:50:28;;;;;;;85.15;37.15;;;;;;;-2.86;93.90;100914.50;5090685;28;20098;-69
2023/01/20 08:52:54;;;;;;;75.90;34.60;;;;;;;-2.81;92.85;100911.66;5093303;28;20047;-69
2023/01/20 08:55:21;;;;;;;84.35;34.42;;;;;;;-2.91;92.92;100913.84;5092001;28;20044;-70
2023/01/20 08:57:47;;;;;;;77.30;34.30;;;;;;;-2.89;93.39;100913.75;5093201;28;20407;-70
2023/01/20 09:00:15;;;;;;;79.22;31.48;;;;;;;-2.94;94.36;100923.63;5075206;28;20116;-69
2023/01/20 09:02:41;;;;;;;75.65;32.83;;;;;;;-2.88;94.67;100924.19;5091058;28;20398;-70
2023/01/20 09:05:08;;;;;;;73.57;34.08;;;;;;;-2.98;94.87;100936.03;5089785;28;20064;-68
2023/01/20 09:07:35;;;;;;;71.03;32.80;;;;;;;-2.99;94.93;100938.75;5091443;28;20040;-69
2023/01/20 09:10:02;;;;;;;87.85;34.63;;;;;;;-2.93;93.47;100947.16;5082444;28;20054;-68
2023/01/20 09:12:29;;;;;;;69.63;32.97;;;;;;;-2.94;93.79;100942.84;5092192;28;20050;-68
2023/01/20 09:14:55;;;;;;;82.38;34.28;;;;;;;-2.89;93.76;100954.00;5092752;28;20135;-68
2023/01/20 09:17:22;;;;;;;75.65;34.53;;;;;;;-2.78;94.22;100950.06;5091626;28;20044;-68
2023/01/20 09:19:48;;;;;;;82.03;34.28;;;;;;;-2.73;93.24;100955.94;5091295;28;20048;-69
2023/01/20 09:22:15;;;;;;;68.30;31.98;;;;;;;-2.75;92.79;100953.41;5092957;28;20483;-69
2023/01/20 09:24:42;;;;;;;77.25;32.00;;;;;;;-2.78;92.49;100952.69;5090909;28;20048;-67
2023/01/20 09:27:08;;;;;;;77.43;32.05;;;;;;;-2.63;91.96;100962.47;5091072;28;20396;-67
2023/01/20 09:29:35;;;;;;;83.82;33.05;;;;;;;-2.65;90.82;100969.56;5091576;28;20044;-68
2023/01/20 09:32:02;;;;;;;74.45;33.55;;;;;;;-2.78;91.40;100976.31;5092113;28;20052;-67
2023/01/20 09:34:30;;;;;;;77.18;34.35;;;;;;;-2.77;91.43;100978.84;5091113;28;20148;-67
2023/01/20 09:45:42;;;;;;;80.70;35.10;;;;;;;-2.79;90.88;100990.34;5091463;28;20063;-68
2023/01/20 09:54:15;;;;;;;70.40;32.15;;;;;;;-2.49;89.36;100996.00;5090920;28;20054;-68
2023/01/20 09:56:46;;;;;;;71.47;33.38;;;;;;;-2.54;88.74;101006.72;5078757;28;20410;-68
2023/01/20 09:59:35;;;;;;;102.93;34.63;;;;;;;-2.60;88.73;101001.75;5091531;28;20067;-68
2023/01/20 10:02:10;;;;;;;79.72;34.45;;;;;;;-2.45;88.63;101001.03;5095842;28;20070;-68
2023/01/20 10:04:45;;;;;;;71.95;32.95;;;;;;;-2.57;89.00;100999.81;5093912;28;20416;-68
2023/01/20 10:07:14;;;;;;;62.78;31.73;;;;;;;-2.54;88.67;101003.25;5095802;28;20048;-67
2023/01/20 10:09:44;;;;;;;67.10;32.67;;;;;;;-2.43;86.88;101001.84;5095668;28;20048;-68
2023/01/20 10:12:18;;;;;;;73.85;34.40;;;;;;;-2.59;88.25;101011.31;5095611;28;20130;-68
2023/01/20 10:14:54;;;;;;;77.30;33.05;;;;;;;-2.44;88.06;101021.16;5096075;28;20048;-68
2023/01/20 10:17:32;;;;;;;74.15;34.85;;;;;;;-2.41;87.85;101023.66;5085353;28;20043;-68
2023/01/20 10:20:11;;;;;;;71.47;33.03;;;;;;;-2.48;88.05;101019.56;5094476;28;20052;-69
2023/01/20 10:22:49;;;;;;;86.35;31.58;;;;;;;-2.67;88.31;101018.69;5095514;28;20453;-70
2023/01/20 10:25:51;;;;;;;77.30;33.03;;;;;;;-2.59;88.30;101027.06;5095437;28;20131;-69
2023/01/20 10:28:21;;;;;;;;;;;;;;;-2.43;87.10;101019.38;5056576;28;20094;-69
2023/01/20 10:30:48;;;;;;;72.97;30.92;;;;;;;-2.33;86.70;101018.88;5093580;28;19959;-68
2023/01/20 10:33:22;;;;;;;65.55;31.50;;;;;;;-2.25;86.41;101023.78;5095842;28;20153;-69
2023/01/20 10:35:52;;;;;;;65.68;31.77;;;;;;;-2.44;86.86;101023.78;5094766;28;20048;-70
2023/01/20 10:38:37;;;;;;;66.05;30.73;;;;;;;-2.24;86.51;101019.38;5094924;28;20050;-70
2023/01/20 10:41:19;;;;;;;67.28;32.30;;;;;;;-2.18;86.13;101022.56;5094388;28;20457;-70
2023/01/20 10:43:46;;;;;;;74.80;33.95;;;;;;;-2.37;86.94;101022.56;5094332;28;20127;-70
2023/01/20 10:46:19;;;;;;;65.38;32.58;;;;;;;-2.40;86.82;101027.97;5077284;28;20231;-69
2023/01/20 10:48:54;;;;;;;67.88;32.03;;;;;;;-2.32;87.04;101022.34;5095652;28;20050;-69
2023/01/20 10:51:39;;;;;;;72.60;32.05;;;;;;;-2.24;85.96;101025.47;5094540;28;20418;-68
2023/01/20 10:54:21;;;;;;;62.55;31.58;;;;;;;-2.43;86.57;101028.09;5094446;28;20414;-69
2023/01/20 10:56:57;;;;;;;69.72;32.60;;;;;;;-2.36;86.53;101039.19;5093318;28;20055;-70
2023/01/20 10:59:30;;;;;;;83.60;33.90;;;;;;;-2.24;86.48;101032.50;5092866;28;20044;-69
2023/01/20 11:02:03;;;;;;;67.38;35.70;;;;;;;-2.25;86.40;101036.91;5092948;28;20044;-69
2023/01/20 11:04:38;;;;;;;73.13;32.90;;;;;;;-2.23;86.02;101031.63;5092664;28;20047;-69
2023/01/20 11:07:07;;;;;;;66.03;31.98;;;;;;;-2.11;85.83;101033.66;5092952;28;20052;-69
2023/01/20 11:09:37;;;;;;;77.65;33.15;;;;;;;-2.16;84.96;101038.28;5094202;28;20436;-69
2023/01/20 11:12:13;;;;;;;78.32;33.40;;;;;;;-2.15;85.91;101040.84;5093413;28;20048;-69
2023/01/20 11:14:40;;;;;;;77.57;32.13;;;;;;;-1.94;85.14;101040.75;5094462;28;20352;-69
2023/01/20 11:17:13;;;;;;;78.57;31.48;;;;;;;-2.04;85.17;101037.69;5094762;28;20113;-70
2023/01/20 11:19:54;;;;;;;62.78;31.77;;;;;;;-1.97;85.35;101036.50;5093990;28;20246;-70
2023/01/20 11:22:33;;;;;;;53.57;25.83;;;;;;;-1.95;84.93;101041.69;5093468;28;20123;-70
2023/01/20 11:25:02;;;;;;;69.47;32.20;;;;;;;-2.11;84.79;101045.03;5093886;28;20052;-70
2023/01/20 11:27:40;;;;;;;70.50;29.05;;;;;;;-1.90;83.64;101051.06;5094037;28;20048;-70
2023/01/20 11:30:22;;;;;;;64.15;29.75;;;;;;;-1.79;83.18;101047.06;5092883;28;20127;-69
2023/01/20 11:33:24;;;;;;;68.32;31.17;;;;;;;-1.99;83.69;101048.00;5092978;28;20070;-72
2023/01/20 11:36:15;;;;;;;66.75;29.77;;;;;;;-2.04;85.23;101045.59;5092081;28;20044;-71
2023/01/20 11:38:48;;;;;;;66.95;31.73;;;;;;;-2.11;85.48;101042.38;5093958;28;20127;-70
2023/01/20 11:41:19;;;;;;;72.38;30.73;;;;;;;-2.13;84.97;101040.75;5092572;28;20132;-69